sensor_id;sensor_type;location;lat;lon;timestamp;temperature;humidity
8231;DHT22;4156;50.908;6.974;2023-04-08T00:00:13;11.00;99.90
8231;DHT22;4156;50.908;6.974;2023-04-08T00:02:39;11.00;99.90
8231;DHT22;4156;50.908;6.974;2023-04-08T00:05:05;11.00;99.90
8231;DHT22;4156;50.908;6.974;2023-04-08T00:07:31;11.00;99.90
8231;DHT22;4156;50.908;6.974;2023-04-08T00:09:56;11.00;99.90
8231;DHT22;4156;50.908;6.974;2023-04-08T00:12:22;10.90;99.90
8231;DHT22;4156;50.908;6.974;2023-04-08T00:14:47;11.00;99.90
8231;DHT22;4156;50.908;6.974;2023-04-08T00:17:13;10.90;99.90
8231;DHT22;4156;50.908;6.974;2023-04-08T00:19:38;10.90;99.90
8231;DHT22;4156;50.908;6.974;2023-04-08T00:22:04;10.90;99.90
8231;DHT22;4156;50.908;6.974;2023-04-08T00:24:29;10.90;99.90
8231;DHT22;4156;50.908;6.974;2023-04-08T00:26:55;10.90;99.90
8231;DHT22;4156;50.908;6.974;2023-04-08T00:29:21;10.90;99.90
8231;DHT22;4156;50.908;6.974;2023-04-08T00:31:47;10.90;99.90
8231;DHT22;4156;50.908;6.974;2023-04-08T00:34:13;10.90;99.90
8231;DHT22;4156;50.908;6.974;2023-04-08T00:36:38;10.90;99.90
8231;DHT22;4156;50.908;6.974;2023-04-08T00:39:04;10.90;99.90
8231;DHT22;4156;50.908;6.974;2023-04-08T00:41:32;10.90;99.90
8231;DHT22;4156;50.908;6.974;2023-04-08T00:43:58;10.90;99.90
8231;DHT22;4156;50.908;6.974;2023-04-08T00:46:23;10.90;99.90
8231;DHT22;4156;50.908;6.974;2023-04-08T00:48:51;10.90;99.90
8231;DHT22;4156;50.908;6.974;2023-04-08T00:51:17;11.10;99.90
8231;DHT22;4156;50.908;6.974;2023-04-08T00:53:42;10.90;99.90
8231;DHT22;4156;50.908;6.974;2023-04-08T00:56:08;10.90;99.90
8231;DHT22;4156;50.908;6.974;2023-04-08T00:58:34;10.90;99.90
8231;DHT22;4156;50.908;6.974;2023-04-08T01:01:04;10.90;99.90
8231;DHT22;4156;50.908;6.974;2023-04-08T01:06:14;10.90;99.90
8231;DHT22;4156;50.908;6.974;2023-04-08T01:08:44;10.90;99.90
8231;DHT22;4156;50.908;6.974;2023-04-08T01:11:12;10.90;99.90
8231;DHT22;4156;50.908;6.974;2023-04-08T01:13:40;10.90;99.90
8231;DHT22;4156;50.908;6.974;2023-04-08T01:16:12;10.90;99.90
8231;DHT22;4156;50.908;6.974;2023-04-08T01:18:39;10.90;99.90
8231;DHT22;4156;50.908;6.974;2023-04-08T01:21:06;10.80;99.90
8231;DHT22;4156;50.908;6.974;2023-04-08T01:23:39;10.80;99.90
8231;DHT22;4156;50.908;6.974;2023-04-08T01:26:10;10.90;99.90
8231;DHT22;4156;50.908;6.974;2023-04-08T01:28:38;10.90;99.90
8231;DHT22;4156;50.908;6.974;2023-04-08T01:31:05;10.90;99.90
8231;DHT22;4156;50.908;6.974;2023-04-08T01:33:31;10.90;99.90
8231;DHT22;4156;50.908;6.974;2023-04-08T01:35:59;10.90;99.90
8231;DHT22;4156;50.908;6.974;2023-04-08T01:38:25;10.80;99.90
8231;DHT22;4156;50.908;6.974;2023-04-08T01:40:53;10.80;99.90
8231;DHT22;4156;50.908;6.974;2023-04-08T01:43:20;10.80;99.90
8231;DHT22;4156;50.908;6.974;2023-04-08T01:45:47;10.80;99.90
8231;DHT22;4156;50.908;6.974;2023-04-08T01:48:13;10.80;99.90
8231;DHT22;4156;50.908;6.974;2023-04-08T01:50:41;10.80;99.90
8231;DHT22;4156;50.908;6.974;2023-04-08T01:53:09;10.80;99.90
8231;DHT22;4156;50.908;6.974;2023-04-08T01:55:35;10.80;99.90
8231;DHT22;4156;50.908;6.974;2023-04-08T01:58:02;10.80;99.90
8231;DHT22;4156;50.908;6.974;2023-04-08T02:00:30;10.80;99.90
8231;DHT22;4156;50.908;6.974;2023-04-08T02:02:57;10.80;99.90
8231;DHT22;4156;50.908;6.974;2023-04-08T02:05:23;10.80;99.90
8231;DHT22;4156;50.908;6.974;2023-04-08T02:07:49;10.80;99.90
8231;DHT22;4156;50.908;6.974;2023-04-08T02:10:15;10.80;99.90
8231;DHT22;4156;50.908;6.974;2023-04-08T02:12:41;10.80;99.90
8231;DHT22;4156;50.908;6.974;2023-04-08T02:15:08;10.80;99.90
8231;DHT22;4156;50.908;6.974;2023-04-08T02:20:09;10.80;99.90
8231;DHT22;4156;50.908;6.974;2023-04-08T02:22:59;10.80;99.90
8231;DHT22;4156;50.908;6.974;2023-04-08T02:25:28;10.80;99.90
8231;DHT22;4156;50.908;6.974;2023-04-08T02:27:55;10.80;99.90
8231;DHT22;4156;50.908;6.974;2023-04-08T02:30:21;10.80;99.90
8231;DHT22;4156;50.908;6.974;2023-04-08T02:32:47;10.80;99.90
8231;DHT22;4156;50.908;6.974;2023-04-08T02:35:14;10.70;99.90
8231;DHT22;4156;50.908;6.974;2023-04-08T02:37:40;10.80;99.90
8231;DHT22;4156;50.908;6.974;2023-04-08T02:40:41;10.70;99.90
8231;DHT22;4156;50.908;6.974;2023-04-08T02:43:07;10.70;99.90
8231;DHT22;4156;50.908;6.974;2023-04-08T02:45:37;10.70;99.90
8231;DHT22;4156;50.908;6.974;2023-04-08T02:48:04;10.70;99.90
8231;DHT22;4156;50.908;6.974;2023-04-08T02:50:30;10.70;99.90
8231;DHT22;4156;50.908;6.974;2023-04-08T02:52:56;10.70;99.90
8231;DHT22;4156;50.908;6.974;2023-04-08T02:55:21;10.70;99.90
8231;DHT22;4156;50.908;6.974;2023-04-08T02:57:47;10.70;99.90
8231;DHT22;4156;50.908;6.974;2023-04-08T03:00:14;10.70;99.90
8231;DHT22;4156;50.908;6.974;2023-04-08T03:02:39;10.60;99.90
8231;DHT22;4156;50.908;6.974;2023-04-08T03:05:05;10.60;99.90
8231;DHT22;4156;50.908;6.974;2023-04-08T03:07:32;10.60;99.90
8231;DHT22;4156;50.908;6.974;2023-04-08T03:09:58;10.70;99.90
8231;DHT22;4156;50.908;6.974;2023-04-08T03:12:23;10.70;99.90
8231;DHT22;4156;50.908;6.974;2023-04-08T03:14:51;10.70;99.90
8231;DHT22;4156;50.908;6.974;2023-04-08T03:17:16;10.70;99.90
8231;DHT22;4156;50.908;6.974;2023-04-08T03:19:42;10.70;99.90
8231;DHT22;4156;50.908;6.974;2023-04-08T03:22:07;10.60;99.90
8231;DHT22;4156;50.908;6.974;2023-04-08T03:24:34;10.60;99.90
8231;DHT22;4156;50.908;6.974;2023-04-08T03:27:00;10.70;99.90
8231;DHT22;4156;50.908;6.974;2023-04-08T03:29:25;10.70;99.90
8231;DHT22;4156;50.908;6.974;2023-04-08T03:31:51;10.70;99.90
8231;DHT22;4156;50.908;6.974;2023-04-08T03:34:17;10.60;99.90
8231;DHT22;4156;50.908;6.974;2023-04-08T03:36:42;10.60;99.90
8231;DHT22;4156;50.908;6.974;2023-04-08T03:39:08;10.60;99.90
8231;DHT22;4156;50.908;6.974;2023-04-08T03:41:34;10.60;99.90
8231;DHT22;4156;50.908;6.974;2023-04-08T03:44:00;10.60;99.90
8231;DHT22;4156;50.908;6.974;2023-04-08T03:46:25;10.60;99.90
8231;DHT22;4156;50.908;6.974;2023-04-08T03:48:51;10.60;99.90
8231;DHT22;4156;50.908;6.974;2023-04-08T03:51:17;10.60;99.90
8231;DHT22;4156;50.908;6.974;2023-04-08T03:53:42;10.60;99.90
8231;DHT22;4156;50.908;6.974;2023-04-08T03:56:08;10.60;99.90
8231;DHT22;4156;50.908;6.974;2023-04-08T03:58:33;10.60;99.90
8231;DHT22;4156;50.908;6.974;2023-04-08T04:00:59;10.60;99.90
8231;DHT22;4156;50.908;6.974;2023-04-08T04:03:24;10.60;99.90
8231;DHT22;4156;50.908;6.974;2023-04-08T04:05:50;10.60;99.90
8231;DHT22;4156;50.908;6.974;2023-04-08T04:08:16;10.60;99.90
8231;DHT22;4156;50.908;6.974;2023-04-08T04:10:41;10.60;99.90
8231;DHT22;4156;50.908;6.974;2023-04-08T04:13:07;10.60;99.90
8231;DHT22;4156;50.908;6.974;2023-04-08T04:15:32;10.60;99.90
8231;DHT22;4156;50.908;6.974;2023-04-08T04:17:58;10.60;99.90
8231;DHT22;4156;50.908;6.974;2023-04-08T04:20:23;10.50;99.90
8231;DHT22;4156;50.908;6.974;2023-04-08T04:22:50;10.50;99.90
8231;DHT22;4156;50.908;6.974;2023-04-08T04:25:16;10.50;99.90
8231;DHT22;4156;50.908;6.974;2023-04-08T04:27:41;10.60;99.90
8231;DHT22;4156;50.908;6.974;2023-04-08T04:30:07;10.50;99.90
8231;DHT22;4156;50.908;6.974;2023-04-08T04:32:33;10.50;99.90
8231;DHT22;4156;50.908;6.974;2023-04-08T04:34:59;10.50;99.90
8231;DHT22;4156;50.908;6.974;2023-04-08T04:37:25;10.50;99.90
8231;DHT22;4156;50.908;6.974;2023-04-08T04:39:51;10.50;99.90
8231;DHT22;4156;50.908;6.974;2023-04-08T04:42:17;10.50;99.90
8231;DHT22;4156;50.908;6.974;2023-04-08T04:44:42;10.50;99.90
8231;DHT22;4156;50.908;6.974;2023-04-08T04:47:09;10.50;99.90
8231;DHT22;4156;50.908;6.974;2023-04-08T04:49:34;10.50;99.90
8231;DHT22;4156;50.908;6.974;2023-04-08T04:52:00;10.50;99.90
8231;DHT22;4156;50.908;6.974;2023-04-08T04:54:25;10.50;99.90
8231;DHT22;4156;50.908;6.974;2023-04-08T04:56:51;10.50;99.90
8231;DHT22;4156;50.908;6.974;2023-04-08T04:59:16;10.50;99.90
8231;DHT22;4156;50.908;6.974;2023-04-08T05:01:42;10.50;99.90
8231;DHT22;4156;50.908;6.974;2023-04-08T05:04:07;10.50;99.90
8231;DHT22;4156;50.908;6.974;2023-04-08T05:06:33;10.50;99.90
8231;DHT22;4156;50.908;6.974;2023-04-08T05:08:59;10.50;99.90
8231;DHT22;4156;50.908;6.974;2023-04-08T05:11:24;10.50;99.90
8231;DHT22;4156;50.908;6.974;2023-04-08T05:13:50;10.50;99.90
8231;DHT22;4156;50.908;6.974;2023-04-08T05:16:16;10.50;99.90
8231;DHT22;4156;50.908;6.974;2023-04-08T05:18:42;10.50;99.90
8231;DHT22;4156;50.908;6.974;2023-04-08T05:21:07;10.50;99.90
8231;DHT22;4156;50.908;6.974;2023-04-08T05:23:36;10.50;99.90
8231;DHT22;4156;50.908;6.974;2023-04-08T05:26:01;10.50;99.90
8231;DHT22;4156;50.908;6.974;2023-04-08T05:28:27;10.50;99.90
8231;DHT22;4156;50.908;6.974;2023-04-08T05:30:53;10.50;99.90
8231;DHT22;4156;50.908;6.974;2023-04-08T05:33:19;10.50;99.90
8231;DHT22;4156;50.908;6.974;2023-04-08T05:35:44;10.50;99.90
8231;DHT22;4156;50.908;6.974;2023-04-08T05:38:10;10.40;99.90
8231;DHT22;4156;50.908;6.974;2023-04-08T05:40:36;10.50;99.90
8231;DHT22;4156;50.908;6.974;2023-04-08T05:43:02;10.50;99.90
8231;DHT22;4156;50.908;6.974;2023-04-08T05:45:29;10.50;99.90
8231;DHT22;4156;50.908;6.974;2023-04-08T05:47:55;10.50;99.90
8231;DHT22;4156;50.908;6.974;2023-04-08T05:50:20;10.50;99.90
8231;DHT22;4156;50.908;6.974;2023-04-08T05:52:46;10.50;99.90
8231;DHT22;4156;50.908;6.974;2023-04-08T05:55:13;10.50;99.90
8231;DHT22;4156;50.908;6.974;2023-04-08T05:57:39;10.50;99.90
8231;DHT22;4156;50.908;6.974;2023-04-08T06:00:06;10.50;99.90
8231;DHT22;4156;50.908;6.974;2023-04-08T06:02:33;10.50;99.90
8231;DHT22;4156;50.908;6.974;2023-04-08T06:04:58;10.50;99.90
8231;DHT22;4156;50.908;6.974;2023-04-08T06:07:24;10.50;99.90
8231;DHT22;4156;50.908;6.974;2023-04-08T06:09:50;10.50;99.90
8231;DHT22;4156;50.908;6.974;2023-04-08T06:12:15;10.50;99.90
8231;DHT22;4156;50.908;6.974;2023-04-08T06:14:41;10.50;99.90
8231;DHT22;4156;50.908;6.974;2023-04-08T06:17:06;10.50;99.90
8231;DHT22;4156;50.908;6.974;2023-04-08T06:19:32;10.50;99.90
8231;DHT22;4156;50.908;6.974;2023-04-08T06:21:57;10.50;99.90
8231;DHT22;4156;50.908;6.974;2023-04-08T06:24:27;10.50;99.90
8231;DHT22;4156;50.908;6.974;2023-04-08T06:26:54;10.50;99.90
8231;DHT22;4156;50.908;6.974;2023-04-08T06:29:23;10.50;99.90
8231;DHT22;4156;50.908;6.974;2023-04-08T06:31:49;10.50;99.90
8231;DHT22;4156;50.908;6.974;2023-04-08T06:34:15;10.50;99.90
8231;DHT22;4156;50.908;6.974;2023-04-08T06:36:41;10.50;99.90
8231;DHT22;4156;50.908;6.974;2023-04-08T06:39:06;10.50;99.90
8231;DHT22;4156;50.908;6.974;2023-04-08T06:41:32;10.50;99.90
8231;DHT22;4156;50.908;6.974;2023-04-08T06:43:58;10.50;99.90
8231;DHT22;4156;50.908;6.974;2023-04-08T06:46:24;10.50;99.90
8231;DHT22;4156;50.908;6.974;2023-04-08T06:48:50;10.50;99.90
8231;DHT22;4156;50.908;6.974;2023-04-08T06:51:15;10.50;99.90
8231;DHT22;4156;50.908;6.974;2023-04-08T06:53:41;10.50;99.90
8231;DHT22;4156;50.908;6.974;2023-04-08T06:56:06;10.50;99.90
8231;DHT22;4156;50.908;6.974;2023-04-08T06:58:32;10.50;99.90
8231;DHT22;4156;50.908;6.974;2023-04-08T07:00:58;10.50;99.90
8231;DHT22;4156;50.908;6.974;2023-04-08T07:03:25;10.50;99.90
8231;DHT22;4156;50.908;6.974;2023-04-08T07:05:51;10.50;99.90
8231;DHT22;4156;50.908;6.974;2023-04-08T07:08:17;10.50;99.90
8231;DHT22;4156;50.908;6.974;2023-04-08T07:10:42;10.50;99.90
8231;DHT22;4156;50.908;6.974;2023-04-08T07:13:09;10.50;99.90
8231;DHT22;4156;50.908;6.974;2023-04-08T07:15:35;10.50;99.90
8231;DHT22;4156;50.908;6.974;2023-04-08T07:18:00;10.60;99.90
8231;DHT22;4156;50.908;6.974;2023-04-08T07:20:27;10.50;99.90
8231;DHT22;4156;50.908;6.974;2023-04-08T07:22:52;10.60;99.90
8231;DHT22;4156;50.908;6.974;2023-04-08T07:25:18;10.50;99.90
8231;DHT22;4156;50.908;6.974;2023-04-08T07:27:43;10.60;99.90
8231;DHT22;4156;50.908;6.974;2023-04-08T07:30:09;10.60;99.90
8231;DHT22;4156;50.908;6.974;2023-04-08T07:32:34;10.70;99.90
8231;DHT22;4156;50.908;6.974;2023-04-08T07:35:01;10.70;99.90
8231;DHT22;4156;50.908;6.974;2023-04-08T07:37:27;10.80;99.90
8231;DHT22;4156;50.908;6.974;2023-04-08T07:39:52;10.80;99.90
8231;DHT22;4156;50.908;6.974;2023-04-08T07:42:18;10.80;99.90
8231;DHT22;4156;50.908;6.974;2023-04-08T07:44:47;10.80;99.90
8231;DHT22;4156;50.908;6.974;2023-04-08T07:47:12;10.80;99.90
8231;DHT22;4156;50.908;6.974;2023-04-08T07:49:38;10.80;99.90
8231;DHT22;4156;50.908;6.974;2023-04-08T07:52:04;10.80;99.90
8231;DHT22;4156;50.908;6.974;2023-04-08T07:54:31;10.80;99.90
8231;DHT22;4156;50.908;6.974;2023-04-08T07:56:58;10.80;99.90
8231;DHT22;4156;50.908;6.974;2023-04-08T07:59:24;10.80;99.90
8231;DHT22;4156;50.908;6.974;2023-04-08T08:01:50;10.80;99.90
8231;DHT22;4156;50.908;6.974;2023-04-08T08:04:15;10.90;99.90
8231;DHT22;4156;50.908;6.974;2023-04-08T08:06:41;10.90;99.90
8231;DHT22;4156;50.908;6.974;2023-04-08T08:09:06;10.90;99.90
8231;DHT22;4156;50.908;6.974;2023-04-08T08:11:32;10.90;99.90
8231;DHT22;4156;50.908;6.974;2023-04-08T08:13:57;10.90;99.90
8231;DHT22;4156;50.908;6.974;2023-04-08T08:16:27;11.00;99.90
8231;DHT22;4156;50.908;6.974;2023-04-08T08:18:52;11.00;99.90
8231;DHT22;4156;50.908;6.974;2023-04-08T08:21:18;11.00;99.90
8231;DHT22;4156;50.908;6.974;2023-04-08T08:23:43;11.00;99.90
8231;DHT22;4156;50.908;6.974;2023-04-08T08:26:09;11.00;99.90
8231;DHT22;4156;50.908;6.974;2023-04-08T08:28:35;11.00;99.90
8231;DHT22;4156;50.908;6.974;2023-04-08T08:31:01;11.00;99.90
8231;DHT22;4156;50.908;6.974;2023-04-08T08:33:30;11.10;99.90
8231;DHT22;4156;50.908;6.974;2023-04-08T08:35:57;11.10;99.90
8231;DHT22;4156;50.908;6.974;2023-04-08T08:38:23;11.10;99.90
8231;DHT22;4156;50.908;6.974;2023-04-08T08:40:56;11.10;99.90
8231;DHT22;4156;50.908;6.974;2023-04-08T08:43:23;11.10;99.90
8231;DHT22;4156;50.908;6.974;2023-04-08T08:45:49;11.10;99.90
8231;DHT22;4156;50.908;6.974;2023-04-08T08:48:14;11.10;99.90
8231;DHT22;4156;50.908;6.974;2023-04-08T08:50:40;11.10;99.90
8231;DHT22;4156;50.908;6.974;2023-04-08T08:53:05;11.10;99.90
8231;DHT22;4156;50.908;6.974;2023-04-08T08:55:32;11.20;99.90
8231;DHT22;4156;50.908;6.974;2023-04-08T08:58:01;11.20;99.90
8231;DHT22;4156;50.908;6.974;2023-04-08T09:00:34;11.20;99.90
8231;DHT22;4156;50.908;6.974;2023-04-08T09:03:30;11.20;99.90
8231;DHT22;4156;50.908;6.974;2023-04-08T09:05:58;11.20;99.90
8231;DHT22;4156;50.908;6.974;2023-04-08T09:10:50;11.20;99.90
8231;DHT22;4156;50.908;6.974;2023-04-08T09:13:15;11.30;99.90
8231;DHT22;4156;50.908;6.974;2023-04-08T09:16:04;11.30;99.90
8231;DHT22;4156;50.908;6.974;2023-04-08T09:18:31;11.30;99.90
8231;DHT22;4156;50.908;6.974;2023-04-08T09:21:01;11.30;99.90
8231;DHT22;4156;50.908;6.974;2023-04-08T09:23:49;11.30;99.90
8231;DHT22;4156;50.908;6.974;2023-04-08T09:26:17;11.30;99.90
8231;DHT22;4156;50.908;6.974;2023-04-08T09:28:57;11.30;99.90
8231;DHT22;4156;50.908;6.974;2023-04-08T09:31:27;11.30;99.90
8231;DHT22;4156;50.908;6.974;2023-04-08T09:33:58;11.30;99.90
8231;DHT22;4156;50.908;6.974;2023-04-08T09:36:24;11.30;99.90
8231;DHT22;4156;50.908;6.974;2023-04-08T09:38:52;11.30;99.90
8231;DHT22;4156;50.908;6.974;2023-04-08T09:41:19;11.40;99.90
8231;DHT22;4156;50.908;6.974;2023-04-08T09:44:05;11.40;99.90
8231;DHT22;4156;50.908;6.974;2023-04-08T09:54:36;11.40;99.90
8231;DHT22;4156;50.908;6.974;2023-04-08T09:57:12;11.50;99.90
8231;DHT22;4156;50.908;6.974;2023-04-08T09:59:44;11.50;99.90
8231;DHT22;4156;50.908;6.974;2023-04-08T10:02:16;11.50;99.90
8231;DHT22;4156;50.908;6.974;2023-04-08T10:04:44;11.50;99.90
8231;DHT22;4156;50.908;6.974;2023-04-08T10:07:13;11.50;99.90
8231;DHT22;4156;50.908;6.974;2023-04-08T10:09:39;11.60;99.90
8231;DHT22;4156;50.908;6.974;2023-04-08T10:12:07;11.60;99.90
8231;DHT22;4156;50.908;6.974;2023-04-08T10:14:33;11.60;99.90
8231;DHT22;4156;50.908;6.974;2023-04-08T10:17:24;11.60;99.90
8231;DHT22;4156;50.908;6.974;2023-04-08T10:19:53;11.60;99.90
8231;DHT22;4156;50.908;6.974;2023-04-08T10:27:41;11.70;99.90
8231;DHT22;4156;50.908;6.974;2023-04-08T10:32:51;11.70;99.90
8231;DHT22;4156;50.908;6.974;2023-04-08T10:35:16;11.70;99.90
8231;DHT22;4156;50.908;6.974;2023-04-08T10:37:43;11.70;99.90
8231;DHT22;4156;50.908;6.974;2023-04-08T10:40:31;11.70;99.90
8231;DHT22;4156;50.908;6.974;2023-04-08T10:43:00;11.80;99.90
8231;DHT22;4156;50.908;6.974;2023-04-08T10:45:26;11.80;99.90
8231;DHT22;4156;50.908;6.974;2023-04-08T10:47:51;11.80;99.90
8231;DHT22;4156;50.908;6.974;2023-04-08T10:50:18;11.80;99.90
8231;DHT22;4156;50.908;6.974;2023-04-08T10:52:49;11.80;99.90
8231;DHT22;4156;50.908;6.974;2023-04-08T10:55:15;11.80;99.90
8231;DHT22;4156;50.908;6.974;2023-04-08T10:57:41;11.90;99.90
8231;DHT22;4156;50.908;6.974;2023-04-08T11:00:10;11.90;99.90
8231;DHT22;4156;50.908;6.974;2023-04-08T11:02:39;11.90;99.90
8231;DHT22;4156;50.908;6.974;2023-04-08T11:05:05;11.90;99.90
8231;DHT22;4156;50.908;6.974;2023-04-08T11:07:31;11.90;99.90
8231;DHT22;4156;50.908;6.974;2023-04-08T11:10:01;11.90;99.90
8231;DHT22;4156;50.908;6.974;2023-04-08T11:12:26;12.00;99.90
8231;DHT22;4156;50.908;6.974;2023-04-08T11:14:52;12.00;99.90
8231;DHT22;4156;50.908;6.974;2023-04-08T11:17:18;12.00;99.90
8231;DHT22;4156;50.908;6.974;2023-04-08T11:19:45;12.00;99.90
8231;DHT22;4156;50.908;6.974;2023-04-08T11:22:11;12.00;99.90
8231;DHT22;4156;50.908;6.974;2023-04-08T11:24:37;12.00;99.90
8231;DHT22;4156;50.908;6.974;2023-04-08T11:27:04;12.00;99.90
8231;DHT22;4156;50.908;6.974;2023-04-08T11:29:31;12.00;99.90
8231;DHT22;4156;50.908;6.974;2023-04-08T11:31:57;12.10;99.90
8231;DHT22;4156;50.908;6.974;2023-04-08T11:34:24;12.10;99.90
8231;DHT22;4156;50.908;6.974;2023-04-08T11:36:50;12.10;99.90
8231;DHT22;4156;50.908;6.974;2023-04-08T11:39:16;12.10;99.90
8231;DHT22;4156;50.908;6.974;2023-04-08T11:41:42;12.10;99.90
8231;DHT22;4156;50.908;6.974;2023-04-08T11:44:07;12.10;99.90
8231;DHT22;4156;50.908;6.974;2023-04-08T11:46:34;12.20;99.90
8231;DHT22;4156;50.908;6.974;2023-04-08T11:51:28;12.20;99.90
8231;DHT22;4156;50.908;6.974;2023-04-08T11:53:54;12.20;99.90
8231;DHT22;4156;50.908;6.974;2023-04-08T11:56:21;12.20;99.90
8231;DHT22;4156;50.908;6.974;2023-04-08T11:58:48;12.20;99.90
8231;DHT22;4156;50.908;6.974;2023-04-08T12:01:14;12.20;99.90
8231;DHT22;4156;50.908;6.974;2023-04-08T12:04:00;12.20;99.90
8231;DHT22;4156;50.908;6.974;2023-04-08T12:06:27;12.20;99.90
8231;DHT22;4156;50.908;6.974;2023-04-08T12:08:54;12.30;99.90
8231;DHT22;4156;50.908;6.974;2023-04-08T12:11:20;12.20;99.90
8231;DHT22;4156;50.908;6.974;2023-04-08T12:13:46;12.30;99.90
8231;DHT22;4156;50.908;6.974;2023-04-08T12:16:13;12.30;99.90
8231;DHT22;4156;50.908;6.974;2023-04-08T12:18:39;12.30;99.90
8231;DHT22;4156;50.908;6.974;2023-04-08T12:21:05;12.30;99.90
8231;DHT22;4156;50.908;6.974;2023-04-08T12:23:30;12.30;99.90
8231;DHT22;4156;50.908;6.974;2023-04-08T12:25:56;12.30;99.90
8231;DHT22;4156;50.908;6.974;2023-04-08T12:28:22;12.30;99.90
8231;DHT22;4156;50.908;6.974;2023-04-08T12:30:48;12.30;99.90
8231;DHT22;4156;50.908;6.974;2023-04-08T12:33:13;12.30;99.90
8231;DHT22;4156;50.908;6.974;2023-04-08T12:35:38;12.40;99.90
8231;DHT22;4156;50.908;6.974;2023-04-08T12:38:04;12.40;99.90
8231;DHT22;4156;50.908;6.974;2023-04-08T12:40:30;12.40;99.90
8231;DHT22;4156;50.908;6.974;2023-04-08T12:42:55;12.40;99.90
8231;DHT22;4156;50.908;6.974;2023-04-08T12:45:21;12.40;99.90
8231;DHT22;4156;50.908;6.974;2023-04-08T12:47:46;12.40;99.90
8231;DHT22;4156;50.908;6.974;2023-04-08T12:50:12;12.40;99.90
8231;DHT22;4156;50.908;6.974;2023-04-08T12:52:38;12.40;99.90
8231;DHT22;4156;50.908;6.974;2023-04-08T12:55:04;12.40;99.90
8231;DHT22;4156;50.908;6.974;2023-04-08T12:57:30;12.50;99.90
8231;DHT22;4156;50.908;6.974;2023-04-08T12:59:56;12.50;99.90
8231;DHT22;4156;50.908;6.974;2023-04-08T13:02:21;12.50;99.90
8231;DHT22;4156;50.908;6.974;2023-04-08T13:04:49;12.40;99.90
8231;DHT22;4156;50.908;6.974;2023-04-08T13:07:16;12.50;99.90
8231;DHT22;4156;50.908;6.974;2023-04-08T13:09:41;12.50;99.90
8231;DHT22;4156;50.908;6.974;2023-04-08T13:12:07;12.50;99.90
8231;DHT22;4156;50.908;6.974;2023-04-08T13:14:33;12.50;99.90
8231;DHT22;4156;50.908;6.974;2023-04-08T13:16:58;12.50;99.90
8231;DHT22;4156;50.908;6.974;2023-04-08T13:19:24;12.60;99.90
8231;DHT22;4156;50.908;6.974;2023-04-08T13:21:49;12.60;99.90
8231;DHT22;4156;50.908;6.974;2023-04-08T13:24:15;12.60;99.90
8231;DHT22;4156;50.908;6.974;2023-04-08T13:26:41;12.60;99.90
8231;DHT22;4156;50.908;6.974;2023-04-08T13:29:06;12.60;99.90
8231;DHT22;4156;50.908;6.974;2023-04-08T13:31:32;12.60;99.90
8231;DHT22;4156;50.908;6.974;2023-04-08T13:33:57;12.60;99.90
8231;DHT22;4156;50.908;6.974;2023-04-08T13:36:22;12.60;99.90
8231;DHT22;4156;50.908;6.974;2023-04-08T13:38:48;12.60;99.90
8231;DHT22;4156;50.908;6.974;2023-04-08T13:41:14;12.60;99.90
8231;DHT22;4156;50.908;6.974;2023-04-08T13:43:40;12.60;99.90
8231;DHT22;4156;50.908;6.974;2023-04-08T13:46:06;12.70;99.90
8231;DHT22;4156;50.908;6.974;2023-04-08T13:48:32;12.70;99.90
8231;DHT22;4156;50.908;6.974;2023-04-08T13:50:57;12.70;99.90
8231;DHT22;4156;50.908;6.974;2023-04-08T13:53:23;12.70;99.90
8231;DHT22;4156;50.908;6.974;2023-04-08T13:55:48;12.70;99.90
8231;DHT22;4156;50.908;6.974;2023-04-08T13:58:19;12.70;99.90
8231;DHT22;4156;50.908;6.974;2023-04-08T14:00:46;12.70;99.90
8231;DHT22;4156;50.908;6.974;2023-04-08T14:03:12;12.70;99.90
8231;DHT22;4156;50.908;6.974;2023-04-08T14:05:37;12.70;99.90
8231;DHT22;4156;50.908;6.974;2023-04-08T14:08:03;12.70;99.90
8231;DHT22;4156;50.908;6.974;2023-04-08T14:10:28;12.70;99.90
8231;DHT22;4156;50.908;6.974;2023-04-08T14:12:54;12.80;99.90
8231;DHT22;4156;50.908;6.974;2023-04-08T14:15:19;12.80;99.90
8231;DHT22;4156;50.908;6.974;2023-04-08T14:17:45;12.70;99.90
8231;DHT22;4156;50.908;6.974;2023-04-08T14:20:11;12.70;99.90
8231;DHT22;4156;50.908;6.974;2023-04-08T14:22:36;12.70;99.90
8231;DHT22;4156;50.908;6.974;2023-04-08T14:25:02;12.70;99.90
8231;DHT22;4156;50.908;6.974;2023-04-08T14:27:27;12.70;99.90
8231;DHT22;4156;50.908;6.974;2023-04-08T14:29:53;12.70;99.90
8231;DHT22;4156;50.908;6.974;2023-04-08T14:32:19;12.80;99.90
8231;DHT22;4156;50.908;6.974;2023-04-08T14:34:45;12.80;99.90
8231;DHT22;4156;50.908;6.974;2023-04-08T14:37:10;12.80;99.90
8231;DHT22;4156;50.908;6.974;2023-04-08T14:39:36;12.80;99.90
8231;DHT22;4156;50.908;6.974;2023-04-08T14:42:02;12.80;99.90
8231;DHT22;4156;50.908;6.974;2023-04-08T14:44:27;12.80;99.90
8231;DHT22;4156;50.908;6.974;2023-04-08T14:46:53;12.80;99.90
8231;DHT22;4156;50.908;6.974;2023-04-08T14:49:18;12.80;99.90
8231;DHT22;4156;50.908;6.974;2023-04-08T14:51:44;12.80;99.90
8231;DHT22;4156;50.908;6.974;2023-04-08T14:54:10;12.80;99.90
8231;DHT22;4156;50.908;6.974;2023-04-08T14:56:38;12.80;99.90
8231;DHT22;4156;50.908;6.974;2023-04-08T14:59:04;12.80;99.90
8231;DHT22;4156;50.908;6.974;2023-04-08T15:01:30;12.80;99.90
8231;DHT22;4156;50.908;6.974;2023-04-08T15:03:57;12.90;99.90
8231;DHT22;4156;50.908;6.974;2023-04-08T15:06:23;12.90;99.90
8231;DHT22;4156;50.908;6.974;2023-04-08T15:08:50;12.90;99.90
8231;DHT22;4156;50.908;6.974;2023-04-08T15:11:16;12.90;99.90
8231;DHT22;4156;50.908;6.974;2023-04-08T15:13:43;12.80;99.90
8231;DHT22;4156;50.908;6.974;2023-04-08T15:16:09;12.90;99.90
8231;DHT22;4156;50.908;6.974;2023-04-08T15:18:34;12.90;99.90
8231;DHT22;4156;50.908;6.974;2023-04-08T15:21:01;12.90;99.90
8231;DHT22;4156;50.908;6.974;2023-04-08T15:23:27;12.90;99.90
8231;DHT22;4156;50.908;6.974;2023-04-08T15:25:52;12.90;99.90
8231;DHT22;4156;50.908;6.974;2023-04-08T15:28:18;12.90;99.90
8231;DHT22;4156;50.908;6.974;2023-04-08T15:30:43;12.90;99.90
8231;DHT22;4156;50.908;6.974;2023-04-08T15:33:08;12.90;99.90
8231;DHT22;4156;50.908;6.974;2023-04-08T15:35:37;12.90;99.90
8231;DHT22;4156;50.908;6.974;2023-04-08T15:38:02;12.90;99.90
8231;DHT22;4156;50.908;6.974;2023-04-08T15:40:28;13.00;99.90
8231;DHT22;4156;50.908;6.974;2023-04-08T15:42:56;13.00;99.90
8231;DHT22;4156;50.908;6.974;2023-04-08T15:45:22;13.00;99.90
8231;DHT22;4156;50.908;6.974;2023-04-08T15:47:47;13.00;99.90
8231;DHT22;4156;50.908;6.974;2023-04-08T15:50:13;13.00;99.90
8231;DHT22;4156;50.908;6.974;2023-04-08T15:52:39;13.00;99.90
8231;DHT22;4156;50.908;6.974;2023-04-08T15:55:06;13.00;99.90
8231;DHT22;4156;50.908;6.974;2023-04-08T15:57:32;13.00;99.90
8231;DHT22;4156;50.908;6.974;2023-04-08T15:59:57;13.10;99.90
8231;DHT22;4156;50.908;6.974;2023-04-08T16:02:23;13.10;99.90
8231;DHT22;4156;50.908;6.974;2023-04-08T16:04:48;13.10;99.90
8231;DHT22;4156;50.908;6.974;2023-04-08T16:07:14;13.10;99.90
8231;DHT22;4156;50.908;6.974;2023-04-08T16:09:40;13.10;99.90
8231;DHT22;4156;50.908;6.974;2023-04-08T16:12:06;13.10;99.90
8231;DHT22;4156;50.908;6.974;2023-04-08T16:14:31;13.10;99.90
8231;DHT22;4156;50.908;6.974;2023-04-08T16:16:57;13.10;99.90
8231;DHT22;4156;50.908;6.974;2023-04-08T16:19:23;13.10;99.90
8231;DHT22;4156;50.908;6.974;2023-04-08T16:21:48;13.10;99.90
8231;DHT22;4156;50.908;6.974;2023-04-08T16:24:14;13.10;99.90